| time (UTC) | temp F | wind direction | speed knots | gust knots | rain 1hr in | rain 24hr in | rain mn in | humidity % | barometer mb |
| 20260906130902 | 107 | 214 | 2.6 | 7.8 | 0.00 | 0.00 | 0.00 | 21 | 1005.2 |
| 20260906130003 | 107 | 199 | 2.6 | 7.8 | 0.00 | 0.00 | 0.00 | 21 | 1005.2 |
| 20260906125403 | 108 | 242 | 1.7 | 7.0 | 0.00 | 0.00 | 0.00 | 21 | 1005.2 |
| 20260906124505 | 108 | 253 | 1.7 | 7.0 | 0.00 | 0.00 | 0.00 | 22 | 1005.0 |
| 20260906123603 | 106 | 218 | 2.6 | 9.6 | 0.00 | 0.00 | 0.00 | 22 | 1005.4 |
| 20260906122702 | 108 | 190 | 3.5 | 9.6 | 0.00 | 0.00 | 0.00 | 20 | 1005.2 |
| 20260906121802 | 106 | 219 | 2.6 | 9.6 | 0.00 | 0.00 | 0.00 | 20 | 1005.4 |
| 20260906120903 | 107 | 224 | 1.7 | 7.0 | 0.00 | 0.00 | 0.00 | 22 | 1005.5 |
| 20260906120003 | 107 | 248 | 1.7 | 7.0 | 0.00 | 0.00 | 0.00 | 21 | 1005.3 |
| 20260906115403 | 108 | 235 | 1.7 | 7.0 | 0.00 | 0.00 | 0.00 | 21 | 1005.6 |
| 20260906114503 | 106 | 4 | 1.7 | 7.8 | 0.00 | 0.00 | 0.00 | 21 | 1005.7 |
| 20260906113605 | 107 | 215 | 1.7 | 7.8 | 0.00 | 0.00 | 0.00 | 21 | 1005.8 |
| 20260906112703 | 107 | 329 | 0.9 | 7.8 | 0.00 | 0.00 | 0.00 | 21 | 1005.7 |
| 20260906111806 | 106 | 118 | 3.5 | 9.6 | 0.00 | 0.00 | 0.00 | 21 | 1006.0 |
| 20260906110904 | 107 | 126 | 3.5 | 9.6 | 0.00 | 0.00 | 0.00 | 21 | 1005.9 |
| 20260906110004 | 107 | 91 | 1.7 | 7.8 | 0.00 | 0.00 | 0.00 | 21 | 1006.2 |
| 20260906105425 | 107 | 115 | 1.7 | 7.0 | 0.00 | 0.00 | 0.00 | 21 | 1006.1 |
| 20260906104503 | 106 | 67 | 2.6 | 12.2 | 0.00 | 0.00 | 0.00 | 21 | 1006.6 |
| 20260906103604 | 106 | 92 | 2.6 | 7.8 | 0.00 | 0.00 | 0.00 | 21 | 1006.3 |
| 20260906102704 | 106 | 124 | 2.6 | 8.7 | 0.00 | 0.00 | 0.00 | 21 | 1006.6 |
| 20260906101803 | 108 | 81 | 1.7 | 7.8 | 0.00 | 0.00 | 0.00 | 21 | 1006.4 |
| 20260906100903 | 106 | 119 | 3.5 | 8.7 | 0.00 | 0.00 | 0.00 | 20 | 1006.8 |
| 20260906100005 | 108 | 68 | 1.7 | 7.8 | 0.00 | 0.00 | 0.00 | 20 | 1006.8 |
| 20260906095405 | 107 | 220 | 2.6 | 7.8 | 0.00 | 0.00 | 0.00 | 20 | 1006.9 |
| 20260906094504 | 108 | 233 | 1.7 | 9.6 | 0.00 | 0.00 | 0.00 | 22 | 1006.7 |
| 20260906093605 | 106 | 232 | 3.5 | 9.6 | 0.00 | 0.00 | 0.00 | 22 | 1007.0 |
| 20260906092703 | 107 | 342 | 2.6 | 8.7 | 0.00 | 0.00 | 0.00 | 22 | 1007.1 |
| 20260906091802 | 107 | 83 | 2.6 | 8.7 | 0.00 | 0.00 | 0.00 | 22 | 1007.1 |
| 20260906090903 | 106 | 90 | 1.7 | 5.2 | 0.00 | 0.00 | 0.00 | 23 | 1007.4 |
| 20260906090004 | 105 | 120 | 2.6 | 7.0 | 0.00 | 0.00 | 0.00 | 25 | 1007.3 |
| 20260906085425 | 105 | 121 | 2.6 | 7.0 | 0.00 | 0.00 | 0.00 | 25 | 1007.4 |
| 20260906084525 | 104 | 80 | 1.7 | 5.2 | 0.00 | 0.00 | 0.00 | 26 | 1007.6 |
| 20260906083605 | 104 | 322 | 1.7 | 3.5 | 0.00 | 0.00 | 0.00 | 26 | 1007.5 |
| 20260906082703 | 102 | 302 | 1.7 | 5.2 | 0.00 | 0.00 | 0.00 | 26 | 1007.7 |
| 20260906081805 | 101 | 254 | 2.6 | 7.0 | 0.00 | 0.00 | 0.00 | 27 | 1008.1 |
| 20260906080903 | 100 | 254 | 2.6 | 5.2 | 0.00 | 0.00 | 0.00 | 27 | 1008.1 |
| 20260906080004 | 99 | 264 | 2.6 | 6.1 | 0.00 | 0.00 | 0.00 | 28 | 1008.3 |
| 20260906075403 | 99 | 261 | 3.5 | 6.1 | 0.00 | 0.00 | 0.00 | 27 | 1008.3 |
| 20260906074503 | 97 | 253 | 3.5 | 7.8 | 0.00 | 0.00 | 0.00 | 29 | 1008.6 |
| 20260906073603 | 97 | 238 | 4.3 | 7.8 | 0.00 | 0.00 | 0.00 | 31 | 1008.9 |
| 20260906072725 | 97 | 252 | 4.3 | 8.7 | 0.00 | 0.00 | 0.00 | 31 | 1008.8 |
| 20260906071804 | 97 | 260 | 3.5 | 7.0 | 0.00 | 0.00 | 0.00 | 30 | 1008.8 |
| 20260906070904 | 96 | 264 | 2.6 | 5.2 | 0.00 | 0.00 | 0.00 | 30 | 1009.0 |
| 20260906070003 | 95 | 296 | 1.7 | 3.5 | 0.00 | 0.00 | 0.00 | 30 | 1009.0 |
| 20260906065424 | 95 | 67 | 1.7 | 3.5 | 0.00 | 0.00 | 0.00 | 30 | 1008.9 |
| 20260906064506 | 94 | 85 | 1.7 | 3.5 | 0.00 | 0.00 | 0.00 | 31 | 1009.0 |
| 20260906063624 | 92 | 63 | 2.6 | 5.2 | 0.00 | 0.00 | 0.00 | 32 | 1008.9 |
| 20260906062703 | 91 | 88 | 2.6 | 5.2 | 0.00 | 0.00 | 0.00 | 32 | 1009.0 |
| 20260906061805 | 91 | 69 | 2.6 | 3.5 | 0.00 | 0.00 | 0.00 | 33 | 1009.2 |
| 20260906060903 | 92 | 67 | 1.7 | 2.6 | 0.00 | 0.00 | 0.00 | 33 | 1009.4 |
| 20260906060003 | 91 | 74 | 1.7 | 2.6 | 0.00 | 0.00 | 0.00 | 33 | 1009.6 |
| 20260906055404 | 91 | 56 | 0.9 | 2.6 | 0.00 | 0.00 | 0.00 | 32 | 1009.4 |
| 20260906054503 | 90 | 36 | 0.9 | 2.6 | 0.00 | 0.00 | 0.00 | 33 | 1009.6 |
| 20260906053603 | 89 | 26 | 1.7 | 3.5 | 0.00 | 0.00 | 0.00 | 34 | 1009.7 |
| 20260906052724 | 88 | 346 | 1.7 | 3.5 | 0.00 | 0.00 | 0.00 | 36 | 1009.4 |
| 20260906051804 | 86 | 325 | 0.9 | 2.6 | 0.00 | 0.00 | 0.00 | 38 | 1009.7 |
| 20260906050903 | 83 | 312 | 1.7 | 2.6 | 0.00 | 0.00 | 0.00 | 42 | 1009.8 |
| 20260906050005 | 84 | 314 | 0.9 | 2.6 | 0.00 | 0.00 | 0.00 | 42 | 1009.7 |
| 20260906045424 | 84 | 312 | 0.9 | 1.7 | 0.00 | 0.00 | 0.00 | 42 | 1009.5 |
| 20260906044504 | 83 | 307 | 1.7 | 2.6 | 0.00 | 0.00 | 0.00 | 43 | 1009.8 |
| 20260906043604 | 82 | 314 | 1.7 | 2.6 | 0.00 | 0.00 | 0.00 | 43 | 1009.8 |
| 20260906042704 | 82 | 321 | 0.9 | 1.7 | 0.00 | 0.00 | 0.00 | 43 | 1009.8 |
| 20260906041804 | 80 | 312 | 1.7 | 3.5 | 0.00 | 0.00 | 0.00 | 44 | 1009.7 |
| 20260906040904 | 80 | 315 | 1.7 | 3.5 | 0.00 | 0.00 | 0.00 | 45 | 1009.8 |
| 20260906032703 | 79 | 311 | 2.6 | 5.2 | 0.00 | 0.00 | 0.00 | 45 | 1009.5 |
| 20260906031804 | 80 | 309 | 1.7 | 5.2 | 0.00 | 0.00 | 0.00 | 47 | 1009.4 |
| 20260906030924 | 81 | 318 | 0.9 | 1.7 | 0.00 | 0.00 | 0.00 | 44 | 1009.1 |
| 20260906030003 | 80 | 319 | 0.9 | 1.7 | 0.00 | 0.00 | 0.00 | 43 | 1009.2 |
| 20260906025403 | 80 | 331 | 0.0 | 3.5 | 0.00 | 0.00 | 0.00 | 42 | 1009.1 |
| 20260906024503 | 81 | 319 | 2.6 | 5.2 | 0.00 | 0.00 | 0.00 | 43 | 1009.0 |
| 20260906023604 | 82 | 10 | 0.0 | 0.9 | 0.00 | 0.00 | 0.00 | 37 | 1008.7 |
| 20260906022704 | 81 | 324 | 0.9 | 1.7 | 0.00 | 0.00 | 0.00 | 37 | 1008.5 |
| 20260906021803 | 82 | 338 | 0.9 | 1.7 | 0.00 | 0.00 | 0.00 | 37 | 1008.6 |
| 20260906020904 | 82 | 50 | 1.7 | 6.1 | 0.00 | 0.00 | 0.00 | 36 | 1008.5 |
| 20260906020004 | 82 | 86 | 4.3 | 7.0 | 0.00 | 0.00 | 0.00 | 36 | 1008.5 |
| 20260906015404 | 83 | 93 | 4.3 | 7.0 | 0.00 | 0.00 | 0.00 | 35 | 1008.4 |
| 20260906014506 | 83 | 83 | 2.6 | 3.5 | 0.00 | 0.00 | 0.00 | 37 | 1008.5 |
| 20260906013604 | 84 | 74 | 1.7 | 5.2 | 0.00 | 0.00 | 0.00 | 36 | 1008.4 |
| 20260906012703 | 84 | 89 | 4.3 | 6.1 | 0.00 | 0.00 | 0.00 | 35 | 1008.3 |
| 20260906011805 | 83 | 88 | 3.5 | 6.1 | 0.00 | 0.00 | 0.00 | 36 | 1008.3 |
| 20260906010925 | 83 | 82 | 2.6 | 3.5 | 0.00 | 0.00 | 0.00 | 37 | 1008.4 |
| 20260906010003 | 84 | 57 | 1.7 | 2.6 | 0.00 | 0.00 | 0.00 | 39 | 1008.3 |
| 20260906005424 | 84 | 51 | 1.7 | 2.6 | 0.00 | 0.00 | 0.00 | 39 | 1008.6 |
| 20260906004503 | 83 | 353 | 0.0 | 1.7 | 0.00 | 0.00 | 0.00 | 39 | 1008.6 |
| 20260906003624 | 83 | 0 | 0.0 | 0.9 | 0.00 | 0.00 | 0.00 | 41 | 1008.4 |
| 20260906002703 | 84 | 316 | 0.0 | 1.7 | 0.00 | 0.00 | 0.00 | 41 | 1008.6 |
| 20260906001803 | 83 | 315 | 0.9 | 2.6 | 0.00 | 0.00 | 0.00 | 41 | 1008.5 |
| 20260906000903 | 84 | 316 | 0.0 | 0.9 | 0.00 | 0.00 | 0.00 | 39 | 1008.6 |
| 20260906000005 | 84 | 315 | 0.9 | 2.6 | 0.00 | 0.00 | 0.00 | 39 | 1008.6 |
| 20260905235405 | 85 | 311 | 0.9 | 2.6 | 0.00 | 0.00 | 0.00 | 40 | 1008.3 |
| 20260905234524 | 86 | 35 | 0.0 | 1.7 | 0.00 | 0.00 | 0.00 | 37 | 1008.4 |
| 20260905233604 | 86 | 354 | 0.0 | 0.9 | 0.00 | 0.00 | 0.00 | 37 | 1008.6 |
| 20260905232703 | 87 | 355 | 0.0 | 0.9 | 0.00 | 0.00 | 0.00 | 36 | 1008.3 |
| 20260905231806 | 86 | 14 | 0.9 | 3.5 | 0.00 | 0.00 | 0.00 | 35 | 1008.2 |
| 20260905230904 | 87 | 61 | 3.5 | 5.2 | 0.00 | 0.00 | 0.00 | 34 | 1008.3 |
| 20260905230005 | 87 | 43 | 2.6 | 3.5 | 0.00 | 0.00 | 0.00 | 35 | 1008.3 |
| 20260905225403 | 86 | 28 | 0.9 | 1.7 | 0.00 | 0.00 | 0.00 | 36 | 1008.5 |
| 20260905224504 | 86 | 334 | 0.0 | 0.9 | 0.00 | 0.00 | 0.00 | 36 | 1008.5 |
| 20260905223624 | 86 | 338 | 0.0 | 0.9 | 0.00 | 0.00 | 0.00 | 37 | 1008.6 |
| 20260905222704 | 85 | 0 | 0.0 | 0.0 | 0.00 | 0.00 | 0.00 | 37 | 1008.6 |
| 20260905221804 | 86 | 294 | 0.0 | 1.7 | 0.00 | 0.00 | 0.00 | 38 | 1008.5 |
| 20260905220904 | 87 | 277 | 0.0 | 1.7 | 0.00 | 0.00 | 0.00 | 38 | 1008.6 |
| 20260905220003 | 88 | 0 | 0.0 | 0.0 | 0.00 | 0.00 | 0.00 | 35 | 1008.6 |
| 20260905215404 | 88 | 0 | 0.0 | 0.0 | 0.00 | 0.00 | 0.00 | 34 | 1008.6 |
| 20260905214525 | 88 | 0 | 0.0 | 0.0 | 0.00 | 0.00 | 0.00 | 34 | 1008.6 |
| 20260905213627 | 87 | 0 | 0.0 | 0.0 | 0.00 | 0.00 | 0.00 | 34 | 1008.7 |
| 20260905212705 | 87 | 11 | 0.9 | 3.5 | 0.00 | 0.00 | 0.00 | 34 | 1008.7 |
| 20260905211803 | 88 | 64 | 3.5 | 6.1 | 0.00 | 0.00 | 0.00 | 34 | 1008.7 |
| 20260905210903 | 90 | 49 | 3.5 | 6.1 | 0.00 | 0.00 | 0.00 | 33 | 1008.6 |
| 20260905210004 | 90 | 54 | 3.5 | 6.1 | 0.00 | 0.00 | 0.00 | 33 | 1008.6 |
| 20260905205404 | 90 | 45 | 3.5 | 6.1 | 0.00 | 0.00 | 0.00 | 32 | 1008.5 |
| 20260905194505 | 92 | 316 | 2.6 | 5.2 | 0.00 | 0.00 | 0.00 | 31 | 1008.9 |
| 20260905191805 | 93 | 325 | 0.9 | 2.6 | 0.00 | 0.00 | 0.00 | 30 | 1008.7 |
| 20260905190905 | 93 | 328 | 0.9 | 2.6 | 0.00 | 0.00 | 0.00 | 31 | 1008.8 |
| 20260905190004 | 94 | 340 | 0.9 | 1.7 | 0.00 | 0.00 | 0.00 | 32 | 1008.7 |
| 20260905185404 | 93 | 350 | 0.0 | 1.7 | 0.00 | 0.00 | 0.00 | 32 | 1008.5 |
| 20260905184505 | 94 | 355 | 0.0 | 1.7 | 0.00 | 0.00 | 0.00 | 32 | 1008.8 |
| 20260905183604 | 94 | 357 | 0.0 | 1.7 | 0.00 | 0.00 | 0.00 | 31 | 1008.6 |
| 20260905182703 | 94 | 322 | 0.9 | 2.6 | 0.00 | 0.00 | 0.00 | 31 | 1008.8 |
| 20260905181804 | 94 | 327 | 0.9 | 2.6 | 0.00 | 0.00 | 0.00 | 30 | 1008.6 |
| 20260905180907 | 94 | 340 | 0.9 | 1.7 | 0.00 | 0.00 | 0.00 | 30 | 1008.6 |
| 20260905180003 | 94 | 323 | 1.7 | 3.5 | 0.00 | 0.00 | 0.00 | 31 | 1008.8 |
| 20260905175405 | 95 | 322 | 1.7 | 3.5 | 0.00 | 0.00 | 0.00 | 31 | 1008.8 |
| 20260905174504 | 95 | 327 | 0.9 | 2.6 | 0.00 | 0.00 | 0.00 | 31 | 1008.8 |
| 20260905173624 | 96 | 318 | 0.0 | 0.9 | 0.00 | 0.00 | 0.00 | 31 | 1008.8 |
| 20260905172703 | 96 | 317 | 0.0 | 0.9 | 0.00 | 0.00 | 0.00 | 30 | 1008.6 |
| 20260905171824 | 97 | 317 | 0.9 | 1.7 | 0.00 | 0.00 | 0.00 | 30 | 1008.5 |
| 20260905170904 | 97 | 315 | 1.7 | 2.6 | 0.00 | 0.00 | 0.00 | 30 | 1008.7 |
| 20260905170004 | 97 | 319 | 1.7 | 2.6 | 0.00 | 0.00 | 0.00 | 30 | 1008.4 |
| 20260905165403 | 98 | 325 | 0.9 | 1.7 | 0.00 | 0.00 | 0.00 | 31 | 1008.1 |
| 20260905164503 | 99 | 325 | 0.0 | 1.7 | 0.00 | 0.00 | 0.00 | 27 | 1008.0 |
| 20260905163604 | 101 | 357 | 0.9 | 1.7 | 0.00 | 0.00 | 0.00 | 26 | 1007.9 |
| 20260905162723 | 101 | 2 | 0.9 | 1.7 | 0.00 | 0.00 | 0.00 | 24 | 1007.8 |
| 20260905161803 | 102 | 8 | 0.9 | 1.7 | 0.00 | 0.00 | 0.00 | 24 | 1007.6 |
| 20260905160923 | 102 | 8 | 0.9 | 2.6 | 0.00 | 0.00 | 0.00 | 24 | 1007.5 |
| 20260905160023 | 103 | 8 | 0.9 | 2.6 | 0.00 | 0.00 | 0.00 | 24 | 1007.5 |
| 20260905155403 | 103 | 10 | 0.9 | 2.6 | 0.00 | 0.00 | 0.00 | 24 | 1007.5 |
| 20260905154523 | 103 | 4 | 1.7 | 3.5 | 0.00 | 0.00 | 0.00 | 24 | 1007.3 |
| 20260905153602 | 103 | 4 | 1.7 | 3.5 | 0.00 | 0.00 | 0.00 | 24 | 1007.2 |
| 20260905152701 | 103 | 3 | 1.7 | 5.2 | 0.00 | 0.00 | 0.00 | 24 | 1007.2 |
| 20260905151803 | 103 | 6 | 2.6 | 5.2 | 0.00 | 0.00 | 0.00 | 23 | 1007.1 |
| 20260905150923 | 104 | 357 | 3.5 | 6.1 | 0.00 | 0.00 | 0.00 | 23 | 1007.0 |
| 20260905150023 | 104 | 360 | 3.5 | 7.0 | 0.00 | 0.00 | 0.00 | 23 | 1007.2 |
| 20260905145422 | 105 | 14 | 4.3 | 8.7 | 0.00 | 0.00 | 0.00 | 23 | 1007.1 |
| 20260905144503 | 105 | 5 | 3.5 | 8.7 | 0.00 | 0.00 | 0.00 | 23 | 1007.2 |
| 20260905143603 | 105 | 357 | 4.3 | 8.7 | 0.00 | 0.00 | 0.00 | 23 | 1007.1 |
| 20260905142702 | 105 | 347 | 5.2 | 8.7 | 0.00 | 0.00 | 0.00 | 22 | 1007.0 |
| 20260905141802 | 105 | 342 | 4.3 | 8.7 | 0.00 | 0.00 | 0.00 | 22 | 1007.0 |
| 20260905140902 | 106 | 343 | 3.5 | 7.8 | 0.00 | 0.00 | 0.00 | 22 | 1007.2 |
| 20260905140002 | 106 | 8 | 4.3 | 8.7 | 0.00 | 0.00 | 0.00 | 22 | 1006.9 |
| 20260905135402 | 106 | 355 | 5.2 | 13.9 | 0.00 | 0.00 | 0.00 | 22 | 1006.8 |
| 20260905134523 | 106 | 313 | 3.5 | 8.7 | 0.00 | 0.00 | 0.00 | 22 | 1006.9 |
| 20260905133602 | 106 | 340 | 5.2 | 13.0 | 0.00 | 0.00 | 0.00 | 22 | 1006.8 |
| 20260905132723 | 106 | 10 | 3.5 | 8.7 | 0.00 | 0.00 | 0.00 | 22 | 1006.9 |
| 20260905131805 | 107 | 313 | 4.3 | 11.3 | 0.00 | 0.00 | 0.00 | 22 | 1006.8 |